Pagina principale
METAR-TAF:

METAR-TAF

Aeroporti :

Aeroporto di La Rochelle Isola di Ré

La Rochelle, Francia

latitudine: 46-10-45N, longitudine: 1-11-43W, altezza: 23 m

Osservazione

Il bollettino è stato emesso 20 minuti fa, alle 17:30 UTC
Vento 14 kt da est/nord-est
Temperature 26°C
Umidità 28%
Pressione 1012 hPa
Visibilità 10 km o più
nessuna nube inferiore a 1500 m e nessun cumulonembo

METAR: LFBH 311730Z AUTO 07014KT CAVOK 26/06 Q1012

Ora: 19:50 (17:50 UTC)


TAF: mancante

Osservazioni e previsioni meteorologiche di più di 4000 aeroporti (messaggi METAR e TAF).

Le stazioni disponibili sono rappresentate dai dischi gialli e rossi sulla carta.

Puntare il mouse per vedere il nome della stazione.

Clicca sopra per visualizzare le osservazioni e previsioni meteorologiche.

Per cambiare la mappa : fare clic sui pulsanti verdi con una croce nera per ingrandire, il pulsante verde con un trattino per diminuire, o sulla freccia verde per le mappe adiacenti.


METAR-TAF: